sensor_id;sensor_type;location;lat;lon;timestamp;temperature;humidity
15636;DHT22;7917;50.818;6.972;2023-03-09T00:01:17;4.80;99.90
15636;DHT22;7917;50.818;6.972;2023-03-09T00:03:43;4.80;99.90
15636;DHT22;7917;50.818;6.972;2023-03-09T00:06:10;4.80;99.90
15636;DHT22;7917;50.818;6.972;2023-03-09T00:08:38;4.80;99.90
15636;DHT22;7917;50.818;6.972;2023-03-09T00:11:05;4.80;99.90
15636;DHT22;7917;50.818;6.972;2023-03-09T00:13:33;4.80;99.90
15636;DHT22;7917;50.818;6.972;2023-03-09T00:16:08;4.80;99.90
15636;DHT22;7917;50.818;6.972;2023-03-09T00:18:35;4.90;99.90
15636;DHT22;7917;50.818;6.972;2023-03-09T00:21:31;4.90;99.90
15636;DHT22;7917;50.818;6.972;2023-03-09T00:24:03;4.80;99.90
15636;DHT22;7917;50.818;6.972;2023-03-09T00:26:31;4.80;99.90
15636;DHT22;7917;50.818;6.972;2023-03-09T00:28:57;4.90;99.90
15636;DHT22;7917;50.818;6.972;2023-03-09T00:31:25;4.90;99.90
15636;DHT22;7917;50.818;6.972;2023-03-09T00:33:51;4.90;99.90
15636;DHT22;7917;50.818;6.972;2023-03-09T00:36:18;4.80;99.90
15636;DHT22;7917;50.818;6.972;2023-03-09T00:38:52;4.80;99.90
15636;DHT22;7917;50.818;6.972;2023-03-09T00:41:23;4.80;99.90
15636;DHT22;7917;50.818;6.972;2023-03-09T00:43:50;4.80;99.90
15636;DHT22;7917;50.818;6.972;2023-03-09T00:46:17;4.90;99.90
15636;DHT22;7917;50.818;6.972;2023-03-09T00:48:43;4.90;99.90
15636;DHT22;7917;50.818;6.972;2023-03-09T00:51:11;4.90;99.90
15636;DHT22;7917;50.818;6.972;2023-03-09T00:53:39;4.90;99.90
15636;DHT22;7917;50.818;6.972;2023-03-09T00:56:08;4.90;99.90
15636;DHT22;7917;50.818;6.972;2023-03-09T00:58:36;4.90;99.90
15636;DHT22;7917;50.818;6.972;2023-03-09T01:01:12;4.90;99.90
15636;DHT22;7917;50.818;6.972;2023-03-09T01:03:39;5.00;99.90
15636;DHT22;7917;50.818;6.972;2023-03-09T01:06:07;4.90;99.90
15636;DHT22;7917;50.818;6.972;2023-03-09T01:08:34;5.00;99.90
15636;DHT22;7917;50.818;6.972;2023-03-09T01:11:05;5.00;99.90
15636;DHT22;7917;50.818;6.972;2023-03-09T01:13:32;5.00;99.90
15636;DHT22;7917;50.818;6.972;2023-03-09T01:15:59;5.10;99.90
15636;DHT22;7917;50.818;6.972;2023-03-09T01:18:26;5.10;99.90
15636;DHT22;7917;50.818;6.972;2023-03-09T01:20:53;5.10;99.90
15636;DHT22;7917;50.818;6.972;2023-03-09T01:23:20;5.10;99.90
15636;DHT22;7917;50.818;6.972;2023-03-09T01:25:47;5.10;99.90
15636;DHT22;7917;50.818;6.972;2023-03-09T01:28:13;5.20;99.90
15636;DHT22;7917;50.818;6.972;2023-03-09T01:30:40;5.20;99.90
15636;DHT22;7917;50.818;6.972;2023-03-09T01:33:08;5.10;99.90
15636;DHT22;7917;50.818;6.972;2023-03-09T01:35:37;5.00;99.90
15636;DHT22;7917;50.818;6.972;2023-03-09T01:38:03;5.00;99.90
15636;DHT22;7917;50.818;6.972;2023-03-09T01:40:31;4.90;99.90
15636;DHT22;7917;50.818;6.972;2023-03-09T01:43:01;4.90;99.90
15636;DHT22;7917;50.818;6.972;2023-03-09T01:48:49;4.80;99.90
15636;DHT22;7917;50.818;6.972;2023-03-09T01:51:18;4.80;99.90
15636;DHT22;7917;50.818;6.972;2023-03-09T01:53:46;4.90;99.90
15636;DHT22;7917;50.818;6.972;2023-03-09T01:56:15;4.80;99.90
15636;DHT22;7917;50.818;6.972;2023-03-09T01:58:44;4.80;99.90
15636;DHT22;7917;50.818;6.972;2023-03-09T02:01:11;4.80;99.90
15636;DHT22;7917;50.818;6.972;2023-03-09T02:03:40;4.90;99.90
15636;DHT22;7917;50.818;6.972;2023-03-09T02:06:12;4.90;99.90
15636;DHT22;7917;50.818;6.972;2023-03-09T02:08:41;4.90;99.90
15636;DHT22;7917;50.818;6.972;2023-03-09T02:11:12;4.90;99.90
15636;DHT22;7917;50.818;6.972;2023-03-09T02:13:43;4.90;99.90
15636;DHT22;7917;50.818;6.972;2023-03-09T02:16:12;4.80;99.90
15636;DHT22;7917;50.818;6.972;2023-03-09T02:18:39;4.70;99.90
15636;DHT22;7917;50.818;6.972;2023-03-09T02:21:13;4.60;99.90
15636;DHT22;7917;50.818;6.972;2023-03-09T02:23:48;4.60;99.90
15636;DHT22;7917;50.818;6.972;2023-03-09T02:26:21;4.60;99.90
15636;DHT22;7917;50.818;6.972;2023-03-09T02:28:49;4.70;99.90
15636;DHT22;7917;50.818;6.972;2023-03-09T02:31:16;4.70;99.90
15636;DHT22;7917;50.818;6.972;2023-03-09T02:33:44;4.80;99.90
15636;DHT22;7917;50.818;6.972;2023-03-09T02:36:12;4.80;99.90
15636;DHT22;7917;50.818;6.972;2023-03-09T02:38:39;4.90;99.90
15636;DHT22;7917;50.818;6.972;2023-03-09T02:41:08;5.00;99.90
15636;DHT22;7917;50.818;6.972;2023-03-09T02:43:38;5.10;99.90
15636;DHT22;7917;50.818;6.972;2023-03-09T02:46:07;5.10;99.90
15636;DHT22;7917;50.818;6.972;2023-03-09T02:48:34;5.20;99.90
15636;DHT22;7917;50.818;6.972;2023-03-09T02:51:01;5.20;99.90
15636;DHT22;7917;50.818;6.972;2023-03-09T02:53:28;5.20;99.90
15636;DHT22;7917;50.818;6.972;2023-03-09T02:55:57;5.20;99.90
15636;DHT22;7917;50.818;6.972;2023-03-09T02:58:26;5.20;99.90
15636;DHT22;7917;50.818;6.972;2023-03-09T03:00:53;5.20;99.90
15636;DHT22;7917;50.818;6.972;2023-03-09T03:03:21;5.10;99.90
15636;DHT22;7917;50.818;6.972;2023-03-09T03:05:48;5.10;99.90
15636;DHT22;7917;50.818;6.972;2023-03-09T03:08:17;5.00;99.90
15636;DHT22;7917;50.818;6.972;2023-03-09T03:10:45;5.00;99.90
15636;DHT22;7917;50.818;6.972;2023-03-09T03:13:12;5.00;99.90
15636;DHT22;7917;50.818;6.972;2023-03-09T03:15:40;4.90;99.90
15636;DHT22;7917;50.818;6.972;2023-03-09T03:18:07;4.90;99.90
15636;DHT22;7917;50.818;6.972;2023-03-09T03:20:34;4.80;99.90
15636;DHT22;7917;50.818;6.972;2023-03-09T03:23:01;4.80;99.90
15636;DHT22;7917;50.818;6.972;2023-03-09T03:25:30;4.80;99.90
15636;DHT22;7917;50.818;6.972;2023-03-09T03:27:57;4.80;99.90
15636;DHT22;7917;50.818;6.972;2023-03-09T03:30:24;4.80;99.90
15636;DHT22;7917;50.818;6.972;2023-03-09T03:32:51;4.80;99.90
15636;DHT22;7917;50.818;6.972;2023-03-09T03:35:22;4.80;99.90
15636;DHT22;7917;50.818;6.972;2023-03-09T03:37:51;4.80;99.90
15636;DHT22;7917;50.818;6.972;2023-03-09T03:40:24;4.80;99.90
15636;DHT22;7917;50.818;6.972;2023-03-09T03:42:51;4.80;99.90
15636;DHT22;7917;50.818;6.972;2023-03-09T03:45:17;4.80;99.90
15636;DHT22;7917;50.818;6.972;2023-03-09T03:47:45;4.80;99.90
15636;DHT22;7917;50.818;6.972;2023-03-09T03:50:12;4.80;99.90
15636;DHT22;7917;50.818;6.972;2023-03-09T03:52:45;4.80;99.90
15636;DHT22;7917;50.818;6.972;2023-03-09T03:55:12;4.80;99.90
15636;DHT22;7917;50.818;6.972;2023-03-09T03:57:39;4.80;99.90
15636;DHT22;7917;50.818;6.972;2023-03-09T04:00:10;4.80;99.90
15636;DHT22;7917;50.818;6.972;2023-03-09T04:03:16;4.80;99.90
15636;DHT22;7917;50.818;6.972;2023-03-09T04:05:42;4.90;99.90
15636;DHT22;7917;50.818;6.972;2023-03-09T04:08:08;4.90;99.90
15636;DHT22;7917;50.818;6.972;2023-03-09T04:10:38;4.90;99.90
15636;DHT22;7917;50.818;6.972;2023-03-09T04:13:04;4.90;99.90
15636;DHT22;7917;50.818;6.972;2023-03-09T04:15:31;4.90;99.90
15636;DHT22;7917;50.818;6.972;2023-03-09T04:17:58;4.90;99.90
15636;DHT22;7917;50.818;6.972;2023-03-09T04:20:24;4.90;99.90
15636;DHT22;7917;50.818;6.972;2023-03-09T04:22:51;4.90;99.90
15636;DHT22;7917;50.818;6.972;2023-03-09T04:25:18;4.90;99.90
15636;DHT22;7917;50.818;6.972;2023-03-09T04:27:45;4.90;99.90
15636;DHT22;7917;50.818;6.972;2023-03-09T04:30:13;5.00;99.90
15636;DHT22;7917;50.818;6.972;2023-03-09T04:32:39;4.90;99.90
15636;DHT22;7917;50.818;6.972;2023-03-09T04:35:07;4.90;99.90
15636;DHT22;7917;50.818;6.972;2023-03-09T04:37:34;4.90;99.90
15636;DHT22;7917;50.818;6.972;2023-03-09T04:40:00;4.90;99.90
15636;DHT22;7917;50.818;6.972;2023-03-09T04:42:26;4.90;99.90
15636;DHT22;7917;50.818;6.972;2023-03-09T04:44:53;4.90;99.90
15636;DHT22;7917;50.818;6.972;2023-03-09T04:47:21;4.90;99.90
15636;DHT22;7917;50.818;6.972;2023-03-09T04:49:48;4.90;99.90
15636;DHT22;7917;50.818;6.972;2023-03-09T04:52:15;4.90;99.90
15636;DHT22;7917;50.818;6.972;2023-03-09T04:54:41;4.90;99.90
15636;DHT22;7917;50.818;6.972;2023-03-09T04:57:08;4.90;99.90
15636;DHT22;7917;50.818;6.972;2023-03-09T04:59:34;4.80;99.90
15636;DHT22;7917;50.818;6.972;2023-03-09T05:02:01;4.80;99.90
15636;DHT22;7917;50.818;6.972;2023-03-09T05:04:31;4.80;99.90
15636;DHT22;7917;50.818;6.972;2023-03-09T05:07:00;4.80;99.90
15636;DHT22;7917;50.818;6.972;2023-03-09T05:09:27;4.80;99.90
15636;DHT22;7917;50.818;6.972;2023-03-09T05:11:53;4.80;99.90
15636;DHT22;7917;50.818;6.972;2023-03-09T05:14:19;4.80;99.90
15636;DHT22;7917;50.818;6.972;2023-03-09T05:16:48;4.80;99.90
15636;DHT22;7917;50.818;6.972;2023-03-09T05:19:17;4.70;99.90
15636;DHT22;7917;50.818;6.972;2023-03-09T05:21:46;4.70;99.90
15636;DHT22;7917;50.818;6.972;2023-03-09T05:24:13;4.70;99.90
15636;DHT22;7917;50.818;6.972;2023-03-09T05:26:40;4.70;99.90
15636;DHT22;7917;50.818;6.972;2023-03-09T05:29:06;4.70;99.90
15636;DHT22;7917;50.818;6.972;2023-03-09T05:31:33;4.60;99.90
15636;DHT22;7917;50.818;6.972;2023-03-09T05:33:59;4.60;99.90
15636;DHT22;7917;50.818;6.972;2023-03-09T05:36:27;4.60;99.90
15636;DHT22;7917;50.818;6.972;2023-03-09T05:38:54;4.60;99.90
15636;DHT22;7917;50.818;6.972;2023-03-09T05:41:23;4.50;99.90
15636;DHT22;7917;50.818;6.972;2023-03-09T05:43:50;4.60;99.90
15636;DHT22;7917;50.818;6.972;2023-03-09T05:46:17;4.50;99.90
15636;DHT22;7917;50.818;6.972;2023-03-09T05:48:46;4.60;99.90
15636;DHT22;7917;50.818;6.972;2023-03-09T05:51:13;4.60;99.90
15636;DHT22;7917;50.818;6.972;2023-03-09T05:53:40;4.60;99.90
15636;DHT22;7917;50.818;6.972;2023-03-09T05:56:07;4.60;99.90
15636;DHT22;7917;50.818;6.972;2023-03-09T05:58:34;4.60;99.90
15636;DHT22;7917;50.818;6.972;2023-03-09T06:01:01;4.50;99.90
15636;DHT22;7917;50.818;6.972;2023-03-09T06:03:28;4.50;99.90
15636;DHT22;7917;50.818;6.972;2023-03-09T06:05:59;4.40;99.90
15636;DHT22;7917;50.818;6.972;2023-03-09T06:08:25;4.40;99.90
15636;DHT22;7917;50.818;6.972;2023-03-09T06:10:53;4.40;99.90
15636;DHT22;7917;50.818;6.972;2023-03-09T06:13:19;4.40;99.90
15636;DHT22;7917;50.818;6.972;2023-03-09T06:15:46;4.40;99.90
15636;DHT22;7917;50.818;6.972;2023-03-09T06:18:13;4.30;99.90
15636;DHT22;7917;50.818;6.972;2023-03-09T06:20:40;4.40;99.90
15636;DHT22;7917;50.818;6.972;2023-03-09T06:23:06;4.40;99.90
15636;DHT22;7917;50.818;6.972;2023-03-09T06:25:33;4.50;99.90
15636;DHT22;7917;50.818;6.972;2023-03-09T06:28:00;4.50;99.90
15636;DHT22;7917;50.818;6.972;2023-03-09T06:30:27;4.50;99.90
15636;DHT22;7917;50.818;6.972;2023-03-09T06:32:54;4.50;99.90
15636;DHT22;7917;50.818;6.972;2023-03-09T06:35:22;4.50;99.90
15636;DHT22;7917;50.818;6.972;2023-03-09T06:37:48;4.50;99.90
15636;DHT22;7917;50.818;6.972;2023-03-09T06:40:16;4.50;99.90
15636;DHT22;7917;50.818;6.972;2023-03-09T06:42:43;4.50;99.90
15636;DHT22;7917;50.818;6.972;2023-03-09T06:45:12;4.60;99.90
15636;DHT22;7917;50.818;6.972;2023-03-09T06:47:39;4.60;99.90
15636;DHT22;7917;50.818;6.972;2023-03-09T06:50:07;4.60;99.90
15636;DHT22;7917;50.818;6.972;2023-03-09T06:52:33;4.60;99.90
15636;DHT22;7917;50.818;6.972;2023-03-09T06:55:03;4.60;99.90
15636;DHT22;7917;50.818;6.972;2023-03-09T06:57:29;4.60;99.90
15636;DHT22;7917;50.818;6.972;2023-03-09T06:59:56;4.60;99.90
15636;DHT22;7917;50.818;6.972;2023-03-09T07:02:23;4.60;99.90
15636;DHT22;7917;50.818;6.972;2023-03-09T07:04:50;4.60;99.90
15636;DHT22;7917;50.818;6.972;2023-03-09T07:07:16;4.60;99.90
15636;DHT22;7917;50.818;6.972;2023-03-09T07:09:44;4.60;99.90
15636;DHT22;7917;50.818;6.972;2023-03-09T07:12:11;4.60;99.90
15636;DHT22;7917;50.818;6.972;2023-03-09T07:14:38;4.60;99.90
15636;DHT22;7917;50.818;6.972;2023-03-09T07:17:04;4.60;99.90
15636;DHT22;7917;50.818;6.972;2023-03-09T07:19:31;4.60;99.90
15636;DHT22;7917;50.818;6.972;2023-03-09T07:21:58;4.60;99.90
15636;DHT22;7917;50.818;6.972;2023-03-09T07:24:25;4.60;99.90
15636;DHT22;7917;50.818;6.972;2023-03-09T07:26:51;4.60;99.90
15636;DHT22;7917;50.818;6.972;2023-03-09T07:29:18;4.60;99.90
15636;DHT22;7917;50.818;6.972;2023-03-09T07:31:46;4.50;99.90
15636;DHT22;7917;50.818;6.972;2023-03-09T07:34:13;4.60;99.90
15636;DHT22;7917;50.818;6.972;2023-03-09T07:36:40;4.60;99.90
15636;DHT22;7917;50.818;6.972;2023-03-09T07:39:07;4.60;99.90
15636;DHT22;7917;50.818;6.972;2023-03-09T07:41:35;4.70;99.90
15636;DHT22;7917;50.818;6.972;2023-03-09T07:44:01;4.80;99.90
15636;DHT22;7917;50.818;6.972;2023-03-09T07:46:56;4.80;99.90
15636;DHT22;7917;50.818;6.972;2023-03-09T07:49:37;4.80;99.90
15636;DHT22;7917;50.818;6.972;2023-03-09T07:52:05;4.80;99.90
15636;DHT22;7917;50.818;6.972;2023-03-09T07:54:32;4.80;99.90
15636;DHT22;7917;50.818;6.972;2023-03-09T07:56:59;4.90;99.90
15636;DHT22;7917;50.818;6.972;2023-03-09T08:02:48;4.90;99.90
15636;DHT22;7917;50.818;6.972;2023-03-09T08:05:15;5.00;99.90
15636;DHT22;7917;50.818;6.972;2023-03-09T08:07:44;5.00;99.90
15636;DHT22;7917;50.818;6.972;2023-03-09T08:10:14;5.00;99.90
15636;DHT22;7917;50.818;6.972;2023-03-09T08:12:41;5.10;99.90
15636;DHT22;7917;50.818;6.972;2023-03-09T08:15:08;5.20;99.90
15636;DHT22;7917;50.818;6.972;2023-03-09T08:17:36;5.30;99.90
15636;DHT22;7917;50.818;6.972;2023-03-09T08:20:03;5.30;99.90
15636;DHT22;7917;50.818;6.972;2023-03-09T08:22:31;5.30;99.90
15636;DHT22;7917;50.818;6.972;2023-03-09T08:24:59;5.40;99.90
15636;DHT22;7917;50.818;6.972;2023-03-09T08:27:27;5.50;99.90
15636;DHT22;7917;50.818;6.972;2023-03-09T08:29:59;5.50;99.90
15636;DHT22;7917;50.818;6.972;2023-03-09T08:32:25;5.50;99.90
15636;DHT22;7917;50.818;6.972;2023-03-09T08:34:56;5.50;99.90
15636;DHT22;7917;50.818;6.972;2023-03-09T08:37:23;5.50;99.90
15636;DHT22;7917;50.818;6.972;2023-03-09T08:39:50;5.50;99.90
15636;DHT22;7917;50.818;6.972;2023-03-09T08:42:19;5.50;99.90
15636;DHT22;7917;50.818;6.972;2023-03-09T08:44:45;5.50;99.90
15636;DHT22;7917;50.818;6.972;2023-03-09T08:47:12;5.60;99.90
15636;DHT22;7917;50.818;6.972;2023-03-09T08:49:39;5.60;99.90
15636;DHT22;7917;50.818;6.972;2023-03-09T08:52:07;5.60;99.90
15636;DHT22;7917;50.818;6.972;2023-03-09T08:54:34;5.60;99.90
15636;DHT22;7917;50.818;6.972;2023-03-09T08:57:00;5.70;99.90
15636;DHT22;7917;50.818;6.972;2023-03-09T08:59:27;5.70;99.90
15636;DHT22;7917;50.818;6.972;2023-03-09T09:01:55;5.70;99.90
15636;DHT22;7917;50.818;6.972;2023-03-09T09:04:21;5.80;99.90
15636;DHT22;7917;50.818;6.972;2023-03-09T09:06:48;5.90;99.90
15636;DHT22;7917;50.818;6.972;2023-03-09T09:09:14;6.10;99.90
15636;DHT22;7917;50.818;6.972;2023-03-09T09:11:40;6.20;99.90
15636;DHT22;7917;50.818;6.972;2023-03-09T09:14:07;6.40;99.90
15636;DHT22;7917;50.818;6.972;2023-03-09T09:16:34;6.50;99.90
15636;DHT22;7917;50.818;6.972;2023-03-09T09:19:01;6.60;99.90
15636;DHT22;7917;50.818;6.972;2023-03-09T09:21:28;6.70;99.90
15636;DHT22;7917;50.818;6.972;2023-03-09T09:23:55;6.80;99.90
15636;DHT22;7917;50.818;6.972;2023-03-09T09:26:21;6.80;99.90
15636;DHT22;7917;50.818;6.972;2023-03-09T09:28:48;6.90;99.90
15636;DHT22;7917;50.818;6.972;2023-03-09T09:31:19;7.10;99.90
15636;DHT22;7917;50.818;6.972;2023-03-09T09:33:47;7.10;99.90
15636;DHT22;7917;50.818;6.972;2023-03-09T09:36:15;7.00;99.90
15636;DHT22;7917;50.818;6.972;2023-03-09T09:38:43;7.00;99.90
15636;DHT22;7917;50.818;6.972;2023-03-09T09:41:16;7.00;99.90
15636;DHT22;7917;50.818;6.972;2023-03-09T09:43:45;7.00;99.90
15636;DHT22;7917;50.818;6.972;2023-03-09T09:46:17;7.00;99.90
15636;DHT22;7917;50.818;6.972;2023-03-09T09:48:47;7.10;99.90
15636;DHT22;7917;50.818;6.972;2023-03-09T09:51:33;7.10;99.90
15636;DHT22;7917;50.818;6.972;2023-03-09T09:54:06;7.00;99.90
15636;DHT22;7917;50.818;6.972;2023-03-09T09:56:43;7.10;99.90
15636;DHT22;7917;50.818;6.972;2023-03-09T09:59:15;7.10;99.90
15636;DHT22;7917;50.818;6.972;2023-03-09T10:01:49;7.10;99.90
15636;DHT22;7917;50.818;6.972;2023-03-09T10:04:25;7.20;99.90
15636;DHT22;7917;50.818;6.972;2023-03-09T10:06:56;7.30;99.90
15636;DHT22;7917;50.818;6.972;2023-03-09T10:09:26;7.40;99.90
15636;DHT22;7917;50.818;6.972;2023-03-09T10:11:55;7.30;99.90
15636;DHT22;7917;50.818;6.972;2023-03-09T10:14:29;7.50;99.90
15636;DHT22;7917;50.818;6.972;2023-03-09T10:17:09;7.50;99.90
15636;DHT22;7917;50.818;6.972;2023-03-09T10:19:40;7.60;99.90
15636;DHT22;7917;50.818;6.972;2023-03-09T10:22:15;7.60;99.90
15636;DHT22;7917;50.818;6.972;2023-03-09T10:24:44;7.70;99.90
15636;DHT22;7917;50.818;6.972;2023-03-09T10:27:19;7.70;99.90
15636;DHT22;7917;50.818;6.972;2023-03-09T10:29:52;7.70;99.90
15636;DHT22;7917;50.818;6.972;2023-03-09T10:32:21;7.70;99.90
15636;DHT22;7917;50.818;6.972;2023-03-09T10:34:56;7.70;99.90
15636;DHT22;7917;50.818;6.972;2023-03-09T10:37:32;7.50;99.90
15636;DHT22;7917;50.818;6.972;2023-03-09T10:40:02;7.60;99.90
15636;DHT22;7917;50.818;6.972;2023-03-09T10:42:34;7.60;99.90
15636;DHT22;7917;50.818;6.972;2023-03-09T10:45:19;7.60;99.90
15636;DHT22;7917;50.818;6.972;2023-03-09T10:47:59;7.60;99.90
15636;DHT22;7917;50.818;6.972;2023-03-09T10:50:29;7.80;99.90
15636;DHT22;7917;50.818;6.972;2023-03-09T10:52:56;7.70;99.90
15636;DHT22;7917;50.818;6.972;2023-03-09T10:55:35;7.80;99.90
15636;DHT22;7917;50.818;6.972;2023-03-09T10:58:10;7.90;99.90
15636;DHT22;7917;50.818;6.972;2023-03-09T11:00:57;8.10;99.90
15636;DHT22;7917;50.818;6.972;2023-03-09T11:03:39;8.10;99.90
15636;DHT22;7917;50.818;6.972;2023-03-09T11:06:23;8.20;99.90
15636;DHT22;7917;50.818;6.972;2023-03-09T11:08:58;8.10;99.90
15636;DHT22;7917;50.818;6.972;2023-03-09T11:11:27;8.20;99.90
15636;DHT22;7917;50.818;6.972;2023-03-09T11:13:54;8.40;99.90
15636;DHT22;7917;50.818;6.972;2023-03-09T11:16:24;8.70;99.90
15636;DHT22;7917;50.818;6.972;2023-03-09T11:19:13;9.00;99.90
15636;DHT22;7917;50.818;6.972;2023-03-09T11:21:50;9.30;99.90
15636;DHT22;7917;50.818;6.972;2023-03-09T11:24:18;9.50;99.90
15636;DHT22;7917;50.818;6.972;2023-03-09T11:26:48;9.80;99.90
15636;DHT22;7917;50.818;6.972;2023-03-09T11:29:22;9.90;99.90
15636;DHT22;7917;50.818;6.972;2023-03-09T11:31:50;10.10;99.90
15636;DHT22;7917;50.818;6.972;2023-03-09T11:34:23;10.50;99.90
15636;DHT22;7917;50.818;6.972;2023-03-09T11:36:55;10.80;99.90
15636;DHT22;7917;50.818;6.972;2023-03-09T11:39:26;10.80;99.90
15636;DHT22;7917;50.818;6.972;2023-03-09T11:41:56;10.70;99.90
15636;DHT22;7917;50.818;6.972;2023-03-09T11:44:31;10.60;99.90
15636;DHT22;7917;50.818;6.972;2023-03-09T11:47:39;10.20;99.90
15636;DHT22;7917;50.818;6.972;2023-03-09T11:50:14;10.20;99.90
15636;DHT22;7917;50.818;6.972;2023-03-09T11:52:47;10.40;99.90
15636;DHT22;7917;50.818;6.972;2023-03-09T11:55:20;10.80;99.90
15636;DHT22;7917;50.818;6.972;2023-03-09T11:57:53;11.10;1.00
15636;DHT22;7917;50.818;6.972;2023-03-09T12:00:22;11.10;99.90
15636;DHT22;7917;50.818;6.972;2023-03-09T12:02:57;11.20;99.90
15636;DHT22;7917;50.818;6.972;2023-03-09T12:05:28;11.20;99.90
15636;DHT22;7917;50.818;6.972;2023-03-09T12:08:00;11.30;1.00
15636;DHT22;7917;50.818;6.972;2023-03-09T12:10:33;11.30;24.80
15636;DHT22;7917;50.818;6.972;2023-03-09T12:13:04;11.60;1.00
15636;DHT22;7917;50.818;6.972;2023-03-09T12:15:36;11.60;1.00
15636;DHT22;7917;50.818;6.972;2023-03-09T12:18:07;11.70;99.90
15636;DHT22;7917;50.818;6.972;2023-03-09T12:20:37;11.70;99.90
15636;DHT22;7917;50.818;6.972;2023-03-09T12:23:41;11.60;1.00
15636;DHT22;7917;50.818;6.972;2023-03-09T12:26:20;11.60;11.00
15636;DHT22;7917;50.818;6.972;2023-03-09T12:28:57;11.40;1.00
15636;DHT22;7917;50.818;6.972;2023-03-09T12:31:35;11.40;1.00
15636;DHT22;7917;50.818;6.972;2023-03-09T12:34:05;11.50;45.50
15636;DHT22;7917;50.818;6.972;2023-03-09T12:36:33;11.40;99.90
15636;DHT22;7917;50.818;6.972;2023-03-09T12:42:03;11.40;99.90
15636;DHT22;7917;50.818;6.972;2023-03-09T12:45:22;11.20;99.90
15636;DHT22;7917;50.818;6.972;2023-03-09T12:47:51;11.10;99.90
15636;DHT22;7917;50.818;6.972;2023-03-09T12:50:24;10.90;99.90
15636;DHT22;7917;50.818;6.972;2023-03-09T12:53:11;10.50;99.90
15636;DHT22;7917;50.818;6.972;2023-03-09T12:55:45;10.30;99.90
15636;DHT22;7917;50.818;6.972;2023-03-09T13:01:36;10.00;99.90
15636;DHT22;7917;50.818;6.972;2023-03-09T13:04:14;9.90;99.90
15636;DHT22;7917;50.818;6.972;2023-03-09T13:06:44;9.80;99.90
15636;DHT22;7917;50.818;6.972;2023-03-09T13:09:19;9.80;99.90
15636;DHT22;7917;50.818;6.972;2023-03-09T13:11:49;9.70;99.90
15636;DHT22;7917;50.818;6.972;2023-03-09T13:17:37;9.70;99.90
15636;DHT22;7917;50.818;6.972;2023-03-09T13:20:23;9.60;99.90
15636;DHT22;7917;50.818;6.972;2023-03-09T13:22:52;9.50;99.90
15636;DHT22;7917;50.818;6.972;2023-03-09T13:25:33;9.60;99.90
15636;DHT22;7917;50.818;6.972;2023-03-09T13:28:22;9.70;99.90
15636;DHT22;7917;50.818;6.972;2023-03-09T13:30:53;9.90;99.90
15636;DHT22;7917;50.818;6.972;2023-03-09T13:33:25;10.00;99.90
15636;DHT22;7917;50.818;6.972;2023-03-09T13:35:56;10.00;99.90
15636;DHT22;7917;50.818;6.972;2023-03-09T13:38:27;9.90;99.90
15636;DHT22;7917;50.818;6.972;2023-03-09T13:40:57;9.90;99.90
15636;DHT22;7917;50.818;6.972;2023-03-09T13:43:27;9.90;99.90
15636;DHT22;7917;50.818;6.972;2023-03-09T13:46:06;10.00;99.90
15636;DHT22;7917;50.818;6.972;2023-03-09T13:48:42;10.10;99.90
15636;DHT22;7917;50.818;6.972;2023-03-09T13:51:37;10.20;99.90
15636;DHT22;7917;50.818;6.972;2023-03-09T13:54:04;10.40;99.90
15636;DHT22;7917;50.818;6.972;2023-03-09T13:56:31;10.40;99.90
15636;DHT22;7917;50.818;6.972;2023-03-09T13:58:58;10.50;99.90
15636;DHT22;7917;50.818;6.972;2023-03-09T14:01:27;10.60;99.90
15636;DHT22;7917;50.818;6.972;2023-03-09T14:03:56;10.80;99.90
15636;DHT22;7917;50.818;6.972;2023-03-09T14:06:32;11.00;99.90
15636;DHT22;7917;50.818;6.972;2023-03-09T14:09:22;11.10;99.90
15636;DHT22;7917;50.818;6.972;2023-03-09T14:11:51;10.90;99.90
15636;DHT22;7917;50.818;6.972;2023-03-09T14:14:20;10.80;99.90
15636;DHT22;7917;50.818;6.972;2023-03-09T14:16:49;10.80;99.90
15636;DHT22;7917;50.818;6.972;2023-03-09T14:19:21;10.70;99.90
15636;DHT22;7917;50.818;6.972;2023-03-09T14:21:50;10.60;99.90
15636;DHT22;7917;50.818;6.972;2023-03-09T14:24:24;10.60;99.90
15636;DHT22;7917;50.818;6.972;2023-03-09T14:26:51;10.60;99.90
15636;DHT22;7917;50.818;6.972;2023-03-09T14:29:27;10.60;99.90
15636;DHT22;7917;50.818;6.972;2023-03-09T14:32:19;10.70;99.90
15636;DHT22;7917;50.818;6.972;2023-03-09T14:34:49;10.90;99.90
15636;DHT22;7917;50.818;6.972;2023-03-09T14:37:20;11.00;99.90
15636;DHT22;7917;50.818;6.972;2023-03-09T14:39:47;11.20;99.90
15636;DHT22;7917;50.818;6.972;2023-03-09T14:42:18;11.40;99.90
15636;DHT22;7917;50.818;6.972;2023-03-09T14:44:46;11.50;99.90
15636;DHT22;7917;50.818;6.972;2023-03-09T14:47:15;11.70;99.90
15636;DHT22;7917;50.818;6.972;2023-03-09T14:49:43;12.00;99.90
15636;DHT22;7917;50.818;6.972;2023-03-09T14:52:14;12.20;99.90
15636;DHT22;7917;50.818;6.972;2023-03-09T14:54:41;12.50;1.00
15636;DHT22;7917;50.818;6.972;2023-03-09T14:57:10;12.80;99.90
15636;DHT22;7917;50.818;6.972;2023-03-09T14:59:37;12.90;1.00
15636;DHT22;7917;50.818;6.972;2023-03-09T15:02:04;12.90;1.00
15636;DHT22;7917;50.818;6.972;2023-03-09T15:04:31;12.90;99.90
15636;DHT22;7917;50.818;6.972;2023-03-09T15:06:58;12.80;99.90
15636;DHT22;7917;50.818;6.972;2023-03-09T15:09:26;12.80;1.00
15636;DHT22;7917;50.818;6.972;2023-03-09T15:11:57;12.90;99.90
15636;DHT22;7917;50.818;6.972;2023-03-09T15:14:25;13.10;1.00
15636;DHT22;7917;50.818;6.972;2023-03-09T15:16:52;13.30;1.00
15636;DHT22;7917;50.818;6.972;2023-03-09T15:19:20;13.20;1.00
15636;DHT22;7917;50.818;6.972;2023-03-09T15:21:47;13.20;99.90
15636;DHT22;7917;50.818;6.972;2023-03-09T15:24:15;13.00;99.90
15636;DHT22;7917;50.818;6.972;2023-03-09T15:26:42;12.90;67.60
15636;DHT22;7917;50.818;6.972;2023-03-09T15:29:09;12.80;99.90
15636;DHT22;7917;50.818;6.972;2023-03-09T15:31:36;12.80;99.90
15636;DHT22;7917;50.818;6.972;2023-03-09T15:34:03;12.80;99.90
15636;DHT22;7917;50.818;6.972;2023-03-09T15:36:30;12.80;92.80
15636;DHT22;7917;50.818;6.972;2023-03-09T15:38:57;12.80;99.90
15636;DHT22;7917;50.818;6.972;2023-03-09T15:41:23;12.70;99.90
15636;DHT22;7917;50.818;6.972;2023-03-09T15:43:51;12.80;99.90
15636;DHT22;7917;50.818;6.972;2023-03-09T15:46:18;12.70;99.90
15636;DHT22;7917;50.818;6.972;2023-03-09T15:48:45;12.80;1.00
15636;DHT22;7917;50.818;6.972;2023-03-09T15:51:12;12.80;1.00
15636;DHT22;7917;50.818;6.972;2023-03-09T15:53:41;12.80;1.00
15636;DHT22;7917;50.818;6.972;2023-03-09T15:56:09;12.90;1.00
15636;DHT22;7917;50.818;6.972;2023-03-09T15:58:37;12.90;1.00
15636;DHT22;7917;50.818;6.972;2023-03-09T16:01:07;12.90;99.90
15636;DHT22;7917;50.818;6.972;2023-03-09T16:03:34;13.00;99.90
15636;DHT22;7917;50.818;6.972;2023-03-09T16:06:00;13.00;99.90
15636;DHT22;7917;50.818;6.972;2023-03-09T16:08:27;13.00;99.90
15636;DHT22;7917;50.818;6.972;2023-03-09T16:10:55;13.00;99.90
15636;DHT22;7917;50.818;6.972;2023-03-09T16:13:22;12.90;1.00
15636;DHT22;7917;50.818;6.972;2023-03-09T16:15:53;12.90;1.00
15636;DHT22;7917;50.818;6.972;2023-03-09T16:18:20;12.80;1.00
15636;DHT22;7917;50.818;6.972;2023-03-09T16:20:47;12.70;1.00
15636;DHT22;7917;50.818;6.972;2023-03-09T16:23:15;12.60;1.00
15636;DHT22;7917;50.818;6.972;2023-03-09T16:25:49;12.50;22.60
15636;DHT22;7917;50.818;6.972;2023-03-09T16:28:15;12.40;99.90
15636;DHT22;7917;50.818;6.972;2023-03-09T16:30:43;12.30;1.00
15636;DHT22;7917;50.818;6.972;2023-03-09T16:33:09;12.30;99.90